Time;durP1;ratioP1;P1;durP2;ratioP2;P2;SDS_P1;SDS_P2;PMS_P1;PMS_P2;Temp;Humidity;BMP_temperature;BMP_pressure;BME280_temperature;BME280_humidity;BME280_pressure;Samples;Min_cycle;Max_cycle;Signal;HPM_P1;HPM_P2
2023/02/23 00:01:42;;;;;;;17.63;14.47;;;8.60;99.90;;;;;;4981223;28;20535;-67
2023/02/23 00:04:10;;;;;;;20.03;14.07;;;8.50;99.90;;;;;;4976885;28;20481;-67
2023/02/23 00:06:38;;;;;;;19.10;13.70;;;8.50;99.90;;;;;;4944606;28;20490;-66
2023/02/23 00:09:14;;;;;;;23.90;15.70;;;8.50;99.90;;;;;;4955951;28;20484;-67
2023/02/23 00:11:42;;;;;;;17.53;14.10;;;8.50;99.90;;;;;;4949072;28;20469;-66
2023/02/23 00:14:10;;;;;;;20.07;14.33;;;8.50;99.90;;;;;;4944598;28;20896;-66
2023/02/23 00:16:37;;;;;;;19.87;14.93;;;8.50;99.90;;;;;;4945261;28;20500;-67
2023/02/23 00:19:06;;;;;;;18.17;13.67;;;8.50;99.90;;;;;;4958077;28;20520;-67
2023/02/23 00:21:35;;;;;;;17.57;13.70;;;8.50;99.90;;;;;;4949700;28;20875;-67
2023/02/23 00:24:07;;;;;;;16.50;12.40;;;8.40;99.90;;;;;;4946866;28;20619;-66
2023/02/23 00:26:38;;;;;;;19.17;13.60;;;8.40;99.90;;;;;;4958025;28;20493;-67
2023/02/23 00:29:09;;;;;;;19.80;15.00;;;8.40;99.90;;;;;;4984603;28;20515;-67
2023/02/23 00:31:39;;;;;;;18.37;14.10;;;8.40;99.90;;;;;;4965482;28;20485;-67
2023/02/23 00:34:07;;;;;;;19.80;14.83;;;8.40;99.90;;;;;;4949744;28;22156;-67
2023/02/23 00:36:36;;;;;;;19.00;14.10;;;8.30;99.90;;;;;;4949209;28;20643;-67
2023/02/23 00:39:16;;;;;;;16.07;13.70;;;8.30;99.90;;;;;;4951926;28;20497;-67
2023/02/23 00:41:46;;;;;;;20.30;13.70;;;8.30;99.90;;;;;;4947272;28;20828;-66
2023/02/23 00:44:15;;;;;;;18.07;14.07;;;8.30;99.90;;;;;;4979832;28;20940;-67
2023/02/23 00:46:44;;;;;;;20.13;14.90;;;8.30;99.90;;;;;;4961758;28;20799;-66
2023/02/23 00:49:13;;;;;;;20.70;13.77;;;8.30;99.90;;;;;;4952701;28;22573;-67
2023/02/23 00:51:41;;;;;;;19.40;13.97;;;8.30;99.90;;;;;;4981100;28;20476;-67
2023/02/23 00:54:11;;;;;;;19.17;13.10;;;8.30;99.90;;;;;;4984408;28;20507;-67
2023/02/23 00:56:40;;;;;;;19.27;14.40;;;8.30;99.90;;;;;;4953034;28;20893;-67
2023/02/23 00:59:09;;;;;;;19.80;14.83;;;8.30;99.90;;;;;;4948388;28;21484;-67
2023/02/23 01:01:38;;;;;;;21.50;14.37;;;8.30;99.90;;;;;;4953518;28;20474;-67
2023/02/23 01:04:06;;;;;;;19.93;14.87;;;8.30;99.90;;;;;;4954297;28;20474;-66
2023/02/23 01:06:36;;;;;;;20.13;15.13;;;8.30;99.90;;;;;;4953772;28;20587;-66
2023/02/23 01:09:08;;;;;;;20.33;15.03;;;8.30;99.90;;;;;;4952316;28;20591;-66
2023/02/23 01:11:36;;;;;;;20.90;15.13;;;8.30;99.90;;;;;;4950344;28;20486;-66
2023/02/23 01:14:05;;;;;;;18.87;13.83;;;8.30;99.90;;;;;;4955050;28;20592;-67
2023/02/23 01:16:37;;;;;;;19.93;14.80;;;8.20;99.90;;;;;;4961074;28;20504;-66
2023/02/23 01:19:06;;;;;;;18.50;14.87;;;8.20;99.90;;;;;;4955998;28;21093;-66
2023/02/23 01:21:36;;;;;;;22.40;14.67;;;8.20;99.90;;;;;;4951874;28;20491;-66
2023/02/23 01:24:05;;;;;;;18.80;14.47;;;8.20;99.90;;;;;;4952177;28;21239;-66
2023/02/23 01:26:35;;;;;;;24.03;15.20;;;8.20;99.90;;;;;;4950294;28;20489;-67
2023/02/23 01:29:07;;;;;;;18.57;13.53;;;8.20;99.90;;;;;;4959004;28;20485;-67
2023/02/23 01:31:37;;;;;;;19.77;14.90;;;8.20;99.90;;;;;;4952119;28;21295;-67
2023/02/23 01:34:06;;;;;;;19.57;14.00;;;8.10;99.90;;;;;;4956924;28;20469;-67
2023/02/23 01:36:37;;;;;;;19.00;14.10;;;8.10;99.90;;;;;;4959916;28;20511;-67
2023/02/23 01:39:13;;;;;;;22.80;15.90;;;8.10;99.90;;;;;;4953653;28;20580;-66
2023/02/23 01:41:42;;;;;;;18.13;14.73;;;8.10;99.90;;;;;;4956979;28;20843;-67
2023/02/23 01:44:43;;;;;;;17.50;13.63;;;8.10;99.90;;;;;;4953108;28;21006;-67
2023/02/23 01:47:14;;;;;;;20.70;14.80;;;8.10;99.90;;;;;;4949840;28;20662;-67
2023/02/23 01:49:42;;;;;;;21.47;15.77;;;8.10;99.90;;;;;;4953509;28;20502;-67
2023/02/23 01:52:13;;;;;;;18.53;13.57;;;8.10;99.90;;;;;;4978459;28;20481;-67
2023/02/23 01:54:49;;;;;;;21.37;14.17;;;8.10;99.90;;;;;;4946840;28;20633;-67
2023/02/23 01:57:19;;;;;;;19.40;14.67;;;8.00;99.90;;;;;;4955821;28;21496;-66
2023/02/23 01:59:49;;;;;;;21.63;15.87;;;8.10;99.90;;;;;;4949665;28;20489;-66
2023/02/23 02:02:31;;;;;;;19.00;15.97;;;8.00;99.90;;;;;;4934495;28;20469;-67
2023/02/23 02:05:00;;;;;;;20.30;14.27;;;8.00;99.90;;;;;;4936377;28;20485;-67
2023/02/23 02:07:30;;;;;;;20.17;14.47;;;8.10;99.90;;;;;;4947427;28;20502;-67
2023/02/23 02:12:50;;;;;;;22.10;14.53;;;8.00;99.90;;;;;;4948706;28;20477;-66
2023/02/23 02:15:19;;;;;;;21.80;15.67;;;8.00;99.90;;;;;;4943352;28;20484;-67
2023/02/23 02:17:58;;;;;;;19.13;15.23;;;8.00;99.90;;;;;;4945311;28;20992;-66
2023/02/23 02:20:51;;;;;;;18.73;15.30;;;8.00;99.90;;;;;;4947067;28;20497;-66
2023/02/23 02:23:49;;;;;;;18.83;14.77;;;8.00;99.90;;;;;;4951470;28;21078;-67
2023/02/23 02:26:29;;;;;;;19.40;15.17;;;8.00;99.90;;;;;;4945336;28;20967;-66
2023/02/23 02:29:27;;;;;;;22.83;16.00;;;8.00;99.90;;;;;;4942057;28;20527;-66
2023/02/23 02:32:14;;;;;;;19.87;15.30;;;8.00;99.90;;;;;;4949007;28;20993;-67
2023/02/23 02:35:19;;;;;;;18.73;13.90;;;8.00;99.90;;;;;;4945872;28;20480;-66
2023/02/23 02:38:07;;;;;;;20.60;15.10;;;8.00;99.90;;;;;;4948565;28;21068;-67
2023/02/23 02:40:52;;;;;;;18.60;14.73;;;8.00;99.90;;;;;;4936487;28;20506;-67
2023/02/23 02:43:28;;;;;;;20.00;15.17;;;8.00;99.90;;;;;;4952258;28;20478;-67
2023/02/23 02:46:02;;;;;;;20.60;15.23;;;8.00;99.90;;;;;;4963527;28;21545;-66
2023/02/23 02:48:40;;;;;;;20.23;15.27;;;8.00;99.90;;;;;;4948635;28;20510;-66
2023/02/23 02:51:17;;;;;;;19.53;15.53;;;8.00;99.90;;;;;;4949665;28;20488;-67
2023/02/23 02:53:51;;;;;;;18.87;14.87;;;8.00;99.90;;;;;;4954854;28;20489;-66
2023/02/23 02:56:23;;;;;;;20.30;15.73;;;8.00;99.90;;;;;;4951947;28;20550;-67
2023/02/23 02:58:53;;;;;;;21.83;16.07;;;8.00;99.90;;;;;;4951971;28;20507;-66
2023/02/23 04:18:20;;;;;;;24.07;17.33;;;8.00;99.90;;;;;;4981013;28;20986;-67
2023/02/23 04:20:48;;;;;;;21.20;16.30;;;8.00;99.90;;;;;;4949740;28;20504;-66
2023/02/23 04:23:16;;;;;;;25.50;17.60;;;8.00;99.90;;;;;;4952117;28;24067;-65
2023/02/23 04:25:44;;;;;;;26.00;17.30;;;8.00;99.90;;;;;;4951022;28;20477;-66
2023/02/23 04:28:12;;;;;;;22.33;16.50;;;8.00;99.90;;;;;;4951813;28;20488;-66
2023/02/23 04:30:40;;;;;;;25.57;17.20;;;8.00;99.90;;;;;;4947803;28;20489;-66
2023/02/23 04:33:08;;;;;;;25.47;18.67;;;8.00;99.90;;;;;;4956121;28;20481;-66
2023/02/23 04:35:38;;;;;;;25.23;17.37;;;8.00;99.90;;;;;;4943143;28;20481;-67
2023/02/23 04:38:06;;;;;;;30.50;18.83;;;8.00;99.90;;;;;;4951004;28;20983;-66
2023/02/23 04:40:34;;;;;;;25.87;19.03;;;8.00;99.90;;;;;;4954828;28;20500;-67
2023/02/23 04:43:02;;;;;;;22.50;16.67;;;8.00;99.90;;;;;;4955040;28;20477;-67
2023/02/23 04:45:30;;;;;;;27.37;17.93;;;8.10;99.90;;;;;;4944952;28;20492;-69
2023/02/23 04:47:58;;;;;;;23.67;17.73;;;8.10;99.90;;;;;;4955217;28;21012;-66
2023/02/23 04:50:26;;;;;;;26.83;18.40;;;8.00;99.90;;;;;;4955629;28;20524;-66
2023/02/23 04:52:55;;;;;;;23.17;16.70;;;8.00;99.90;;;;;;4949053;28;20481;-66
2023/02/23 04:55:25;;;;;;;26.03;17.67;;;8.10;99.90;;;;;;4958070;28;20493;-65
2023/02/23 04:57:57;;;;;;;26.43;17.30;;;8.00;99.90;;;;;;4953034;28;20501;-67
2023/02/23 05:00:26;;;;;;;23.77;16.93;;;8.10;99.90;;;;;;4956679;28;20504;-67
2023/02/23 05:02:54;;;;;;;23.60;18.00;;;8.10;99.90;;;;;;4951317;28;20469;-67
2023/02/23 05:05:22;;;;;;;28.87;19.27;;;8.10;99.90;;;;;;4979294;28;20473;-66
2023/02/23 05:07:50;;;;;;;26.60;19.37;;;8.10;99.90;;;;;;4949256;28;20497;-66
2023/02/23 05:10:19;;;;;;;27.57;19.20;;;8.10;99.90;;;;;;4947073;28;20737;-66
2023/02/23 05:12:47;;;;;;;27.60;19.13;;;8.10;99.90;;;;;;4960957;28;20531;-67
2023/02/23 05:15:15;;;;;;;27.33;18.50;;;8.10;99.90;;;;;;4953922;28;20498;-67
2023/02/23 05:17:44;;;;;;;28.83;19.50;;;8.10;99.90;;;;;;4948582;28;20550;-66
2023/02/23 05:20:15;;;;;;;26.97;19.30;;;8.10;99.90;;;;;;4947705;28;20505;-67
2023/02/23 05:22:43;;;;;;;28.70;20.30;;;8.10;99.90;;;;;;4944739;28;20482;-66
2023/02/23 05:25:11;;;;;;;26.90;18.87;;;8.10;99.90;;;;;;4950158;28;20482;-66
2023/02/23 05:27:40;;;;;;;24.87;17.80;;;8.10;99.90;;;;;;4946281;28;20511;-66
2023/02/23 05:30:10;;;;;;;28.30;19.77;;;8.20;99.90;;;;;;4950913;28;20493;-66
2023/02/23 05:32:38;;;;;;;28.93;19.23;;;8.20;99.90;;;;;;4950086;28;22470;-66
2023/02/23 05:35:07;;;;;;;32.87;21.57;;;8.20;99.90;;;;;;4962822;28;20473;-67
2023/02/23 05:37:35;;;;;;;30.27;20.10;;;8.20;99.90;;;;;;4953068;28;20596;-66
2023/02/23 05:40:04;;;;;;;29.30;19.07;;;8.20;99.90;;;;;;4945451;28;21599;-67
2023/02/23 05:42:32;;;;;;;27.53;19.57;;;8.20;99.90;;;;;;4957066;28;20476;-67
2023/02/23 05:45:01;;;;;;;29.30;19.00;;;8.20;99.90;;;;;;4950900;28;20482;-67
2023/02/23 05:47:30;;;;;;;23.97;17.43;;;8.20;99.90;;;;;;4943871;28;20590;-67
2023/02/23 05:49:58;;;;;;;24.07;18.33;;;8.20;99.90;;;;;;4941748;28;21150;-66
2023/02/23 05:52:27;;;;;;;26.10;19.23;;;8.20;99.90;;;;;;4945092;28;20471;-67
2023/02/23 05:54:55;;;;;;;27.37;19.70;;;8.20;99.90;;;;;;4946202;28;21498;-66
2023/02/23 05:57:23;;;;;;;28.63;18.77;;;8.20;99.90;;;;;;4963311;28;20496;-66
2023/02/23 05:59:51;;;;;;;28.30;19.93;;;8.20;99.90;;;;;;4952534;28;20753;-67
2023/02/23 06:02:20;;;;;;;33.73;22.17;;;8.20;99.90;;;;;;4960119;28;20504;-66
2023/02/23 06:04:48;;;;;;;33.60;21.27;;;8.20;99.90;;;;;;4942737;28;20477;-66
2023/02/23 06:07:19;;;;;;;34.87;22.27;;;8.20;99.90;;;;;;4951642;28;20480;-66
2023/02/23 06:09:47;;;;;;;34.43;22.73;;;8.20;99.90;;;;;;4953491;28;20527;-68
2023/02/23 06:12:15;;;;;;;32.47;22.17;;;8.20;99.90;;;;;;4941135;28;20964;-66
2023/02/23 06:14:43;;;;;;;36.97;24.53;;;8.20;99.90;;;;;;4944699;28;20603;-66
2023/02/23 06:17:11;;;;;;;36.73;23.40;;;8.20;99.90;;;;;;4950076;28;20496;-66
2023/02/23 06:19:40;;;;;;;34.73;23.20;;;8.20;99.90;;;;;;4951739;28;20489;-67
2023/02/23 06:22:08;;;;;;;39.23;22.53;;;8.20;99.90;;;;;;4945920;28;20496;-65
2023/02/23 06:24:36;;;;;;;34.33;22.50;;;8.20;99.90;;;;;;4960565;28;20485;-66
2023/02/23 06:27:04;;;;;;;34.77;23.20;;;8.20;99.90;;;;;;4985545;28;20520;-66
2023/02/23 06:29:32;;;;;;;34.27;23.20;;;8.20;99.90;;;;;;4967177;28;20498;-65
2023/02/23 06:32:00;;;;;;;36.27;24.00;;;8.30;99.90;;;;;;4953597;28;20469;-66
2023/02/23 06:34:28;;;;;;;43.40;27.27;;;8.30;99.90;;;;;;4951414;28;20560;-67
2023/02/23 06:36:58;;;;;;;39.23;23.60;;;8.30;99.90;;;;;;4939901;28;20485;-66
2023/02/23 06:39:26;;;;;;;42.57;25.60;;;8.30;99.90;;;;;;4955048;28;20509;-67
2023/02/23 06:41:54;;;;;;;43.13;25.70;;;8.20;99.90;;;;;;4967317;28;20485;-67
2023/02/23 06:44:22;;;;;;;42.60;26.83;;;8.20;99.90;;;;;;4952963;28;20770;-67
2023/02/23 06:46:50;;;;;;;43.80;25.67;;;8.30;99.90;;;;;;4950393;28;20493;-67
2023/02/23 06:49:18;;;;;;;46.07;25.40;;;8.30;99.90;;;;;;4948666;28;20547;-67
2023/02/23 06:51:46;;;;;;;40.80;25.17;;;8.30;99.90;;;;;;4961721;28;20474;-67
2023/02/23 06:54:16;;;;;;;40.33;24.40;;;8.30;99.90;;;;;;4986246;28;20552;-67
2023/02/23 06:56:44;;;;;;;45.80;26.20;;;8.30;99.90;;;;;;4961828;28;20481;-66
2023/02/23 06:59:12;;;;;;;48.83;26.97;;;8.30;99.90;;;;;;4963428;28;20480;-67
2023/02/23 07:01:41;;;;;;;45.73;26.73;;;8.30;99.90;;;;;;4963137;28;20501;-66
2023/02/23 07:04:09;;;;;;;43.37;25.43;;;8.30;99.90;;;;;;4962603;28;21249;-66
2023/02/23 07:06:37;;;;;;;44.10;25.30;;;8.30;99.90;;;;;;4967648;28;20560;-67
2023/02/23 07:09:05;;;;;;;44.93;26.43;;;8.20;99.90;;;;;;4962082;28;21519;-66
2023/02/23 07:11:35;;;;;;;43.43;25.87;;;8.30;99.90;;;;;;4948041;28;20481;-66
2023/02/23 07:14:03;;;;;;;45.27;26.33;;;8.30;99.90;;;;;;4946108;28;21375;-66
2023/02/23 07:16:31;;;;;;;45.10;26.13;;;8.30;99.90;;;;;;4945906;28;20493;-67
2023/02/23 07:18:59;;;;;;;46.73;28.00;;;8.30;99.90;;;;;;4943025;28;20619;-66
2023/02/23 07:21:27;;;;;;;46.03;26.37;;;8.30;99.90;;;;;;4972155;28;20488;-67
2023/02/23 07:23:55;;;;;;;56.33;27.37;;;8.30;99.90;;;;;;4944712;28;20469;-66
2023/02/23 07:26:26;;;;;;;47.77;27.20;;;8.30;99.90;;;;;;4943458;28;20496;-66
2023/02/23 07:28:55;;;;;;;51.47;27.40;;;8.30;99.90;;;;;;4952574;28;20473;-65
2023/02/23 07:31:25;;;;;;;54.60;28.77;;;8.30;99.90;;;;;;4947735;28;20469;-66
2023/02/23 07:33:53;;;;;;;47.20;28.17;;;8.30;99.90;;;;;;4961859;28;20469;-66
2023/02/23 07:36:22;;;;;;;47.57;26.80;;;8.30;99.90;;;;;;4951231;28;20492;-66
2023/02/23 07:38:50;;;;;;;52.70;27.27;;;8.20;99.90;;;;;;4951102;28;20488;-66
2023/02/23 07:41:18;;;;;;;51.10;28.77;;;8.30;99.90;;;;;;4945330;28;20519;-66
2023/02/23 07:43:46;;;;;;;51.77;26.37;;;8.30;99.90;;;;;;4950294;28;20492;-67
2023/02/23 07:46:16;;;;;;;48.50;25.80;;;8.30;99.90;;;;;;4943116;28;20497;-67
2023/02/23 07:48:44;;;;;;;52.77;27.63;;;8.20;99.90;;;;;;4971335;28;20472;-66
2023/02/23 07:51:14;;;;;;;51.87;28.30;;;8.30;99.90;;;;;;4948528;28;20494;-66
2023/02/23 07:53:43;;;;;;;50.17;26.87;;;8.20;99.90;;;;;;4946303;28;20487;-66
2023/02/23 07:56:12;;;;;;;50.63;28.63;;;8.20;99.90;;;;;;4951621;28;20489;-66
2023/02/23 07:58:44;;;;;;;49.27;27.23;;;8.20;99.90;;;;;;4946045;28;20987;-67
2023/02/23 08:01:13;;;;;;;53.70;28.10;;;8.20;99.90;;;;;;4949118;28;20573;-67
2023/02/23 08:03:48;;;;;;;50.87;28.00;;;8.20;99.90;;;;;;4984207;28;20535;-67
2023/02/23 08:06:16;;;;;;;48.90;28.00;;;8.20;99.90;;;;;;4974486;28;20945;-67
2023/02/23 08:08:44;;;;;;;45.00;26.50;;;8.30;99.90;;;;;;4942851;28;20481;-66
2023/02/23 08:11:13;;;;;;;48.20;26.20;;;8.30;99.90;;;;;;4944537;28;20519;-66
2023/02/23 08:13:42;;;;;;;47.90;25.60;;;8.30;99.90;;;;;;4947106;28;21110;-66
2023/02/23 08:16:11;;;;;;;45.40;25.30;;;8.30;99.90;;;;;;4955493;28;21083;-67
2023/02/23 08:18:39;;;;;;;42.03;26.07;;;8.30;99.90;;;;;;4952723;28;20601;-67
2023/02/23 08:21:09;;;;;;;42.10;24.87;;;8.30;99.90;;;;;;4953337;28;20493;-66
2023/02/23 08:23:36;;;;;;;36.43;24.60;;;8.30;99.90;;;;;;4948447;28;20500;-66
2023/02/23 08:26:05;;;;;;;39.63;25.33;;;8.30;99.90;;;;;;4954045;28;20496;-67
2023/02/23 08:28:33;;;;;;;43.10;25.43;;;8.30;99.90;;;;;;4955285;28;20481;-67
2023/02/23 08:31:01;;;;;;;36.67;23.43;;;8.20;99.90;;;;;;4973664;28;22006;-66
2023/02/23 08:33:30;;;;;;;42.73;25.57;;;8.20;99.90;;;;;;4984594;28;20507;-66
2023/02/23 08:36:01;;;;;;;39.13;24.43;;;8.30;99.90;;;;;;4975885;28;20515;-66
2023/02/23 08:38:30;;;;;;;37.87;24.10;;;8.30;99.90;;;;;;4954198;28;20714;-67
2023/02/23 08:41:00;;;;;;;36.73;23.50;;;8.30;99.90;;;;;;4952233;28;20504;-66
2023/02/23 08:43:28;;;;;;;37.50;23.73;;;8.30;99.90;;;;;;4960618;28;20900;-67
2023/02/23 08:45:56;;;;;;;37.53;23.60;;;8.30;99.90;;;;;;4956175;28;20491;-66
2023/02/23 08:48:25;;;;;;;41.80;24.97;;;8.30;99.90;;;;;;4958705;28;20469;-66
2023/02/23 08:50:56;;;;;;;33.70;23.00;;;8.30;99.90;;;;;;4956097;28;20631;-66
2023/02/23 08:53:28;;;;;;;34.20;22.70;;;8.30;99.90;;;;;;4951070;28;20905;-66
2023/02/23 08:55:59;;;;;;;34.50;22.63;;;8.20;99.90;;;;;;4954156;28;20887;-66
2023/02/23 08:58:27;;;;;;;36.40;23.90;;;8.30;99.90;;;;;;4973847;28;20482;-66
2023/02/23 09:00:55;;;;;;;39.07;24.93;;;8.30;99.90;;;;;;4967970;28;20500;-67
2023/02/23 09:03:25;;;;;;;35.50;23.80;;;8.30;99.90;;;;;;4952439;28;20516;-67
2023/02/23 09:05:55;;;;;;;34.33;23.30;;;8.20;99.90;;;;;;4970960;28;20971;-66
2023/02/23 09:08:25;;;;;;;39.47;24.60;;;8.30;99.90;;;;;;4956684;28;20478;-67
2023/02/23 09:10:53;;;;;;;43.77;26.50;;;8.30;99.90;;;;;;4953942;28;20493;-66
2023/02/23 09:13:22;;;;;;;40.23;26.77;;;8.30;99.90;;;;;;4987685;28;20477;-67
2023/02/23 09:15:50;;;;;;;39.10;25.03;;;8.30;99.90;;;;;;4978522;28;20504;-66
2023/02/23 09:18:18;;;;;;;46.70;28.27;;;8.30;99.90;;;;;;4952396;28;20485;-66
2023/02/23 09:20:46;;;;;;;41.43;28.20;;;8.30;99.90;;;;;;4955357;28;21043;-67
2023/02/23 09:23:14;;;;;;;46.17;28.00;;;8.30;99.90;;;;;;4944907;28;20522;-66
2023/02/23 09:25:43;;;;;;;45.57;28.37;;;8.30;99.90;;;;;;4963097;28;20473;-67
2023/02/23 09:28:12;;;;;;;43.17;28.47;;;8.30;99.90;;;;;;4988220;28;20876;-66
2023/02/23 09:30:42;;;;;;;49.83;31.30;;;8.30;99.90;;;;;;4954699;28;20493;-67
2023/02/23 09:33:10;;;;;;;52.37;30.37;;;8.30;99.90;;;;;;4951661;28;20953;-67
2023/02/23 09:35:40;;;;;;;52.17;31.10;;;8.30;99.90;;;;;;4958107;28;20836;-66
2023/02/23 09:38:08;;;;;;;52.20;30.50;;;8.30;99.90;;;;;;4955449;28;20615;-66
2023/02/23 09:40:45;;;;;;;51.33;30.70;;;8.20;99.90;;;;;;4965405;28;20520;-66
2023/02/23 09:43:18;;;;;;;58.67;33.27;;;8.20;99.90;;;;;;4951474;28;23446;-67
2023/02/23 09:45:51;;;;;;;54.50;32.03;;;8.20;99.90;;;;;;4956040;28;20487;-66
2023/02/23 09:48:21;;;;;;;60.03;33.33;;;8.20;99.90;;;;;;4951616;28;21035;-67
2023/02/23 09:50:51;;;;;;;63.57;35.00;;;8.10;99.90;;;;;;4953226;28;20500;-67
2023/02/23 09:53:35;;;;;;;59.83;34.07;;;8.10;99.90;;;;;;4959379;28;20560;-68
2023/02/23 09:56:10;;;;;;;65.43;32.90;;;8.10;99.90;;;;;;4955630;28;20492;-67
2023/02/23 09:58:39;;;;;;;65.23;34.37;;;8.10;99.90;;;;;;4953296;28;20483;-67
2023/02/23 10:01:27;;;;;;;74.07;35.63;;;8.00;99.90;;;;;;4948413;28;20492;-68
2023/02/23 10:03:59;;;;;;;77.67;37.67;;;8.00;99.90;;;;;;4956064;28;20493;-68
2023/02/23 10:06:28;;;;;;;69.13;36.37;;;8.10;99.90;;;;;;4952362;28;20499;-67
2023/02/23 10:09:14;;;;;;;66.80;33.53;;;8.10;99.90;;;;;;4984028;28;20472;-67
2023/02/23 10:11:47;;;;;;;70.00;36.37;;;8.10;99.90;;;;;;4986054;28;20844;-67
2023/02/23 10:14:25;;;;;;;79.53;37.10;;;8.10;99.90;;;;;;4956201;28;20465;-68
2023/02/23 10:17:09;;;;;;;71.67;34.27;;;8.10;99.90;;;;;;4953694;28;20497;-67
2023/02/23 10:19:43;;;;;;;63.80;33.77;;;8.10;99.90;;;;;;4946818;28;20513;-67
2023/02/23 10:22:14;;;;;;;66.20;34.30;;;8.10;99.90;;;;;;4973065;28;21002;-68
2023/02/23 10:24:45;;;;;;;74.93;34.20;;;8.10;99.90;;;;;;4965054;28;20505;-68
2023/02/23 10:27:16;;;;;;;67.17;34.17;;;8.10;99.90;;;;;;4952288;28;20489;-66
2023/02/23 10:29:50;;;;;;;74.07;34.53;;;8.10;99.90;;;;;;4948043;28;20497;-67
2023/02/23 10:32:24;;;;;;;69.10;33.77;;;8.10;99.90;;;;;;4955251;28;20481;-67
2023/02/23 10:34:55;;;;;;;67.17;34.10;;;8.10;99.90;;;;;;4952515;28;20866;-67
2023/02/23 10:37:24;;;;;;;74.30;34.70;;;8.00;99.90;;;;;;4985705;28;20495;-68
2023/02/23 10:39:53;;;;;;;66.67;32.90;;;8.10;99.90;;;;;;4965048;28;21119;-67
2023/02/23 10:42:27;;;;;;;70.93;32.40;;;8.10;99.90;;;;;;4950088;28;20984;-67
2023/02/23 10:44:56;;;;;;;70.93;34.30;;;8.10;99.90;;;;;;4947176;28;20861;-68
2023/02/23 10:47:29;;;;;;;67.80;34.23;;;8.10;99.90;;;;;;4952712;28;20809;-68
2023/02/23 10:49:58;;;;;;;68.40;32.60;;;8.10;99.90;;;;;;4966026;28;20501;-67
2023/02/23 10:52:32;;;;;;;66.63;33.67;;;8.10;99.90;;;;;;4949501;28;20477;-67
2023/02/23 10:55:07;;;;;;;68.30;33.03;;;8.10;99.90;;;;;;4977830;28;20519;-68
2023/02/23 10:57:40;;;;;;;67.00;34.00;;;8.10;99.90;;;;;;4985485;28;21093;-68
2023/02/23 11:00:31;;;;;;;63.53;31.47;;;8.10;99.90;;;;;;4949508;28;20823;-67
2023/02/23 11:03:03;;;;;;;69.77;31.80;;;8.00;99.90;;;;;;4957857;28;20485;-68
2023/02/23 11:05:43;;;;;;;63.53;30.00;;;8.00;99.90;;;;;;4983032;28;20473;-67
2023/02/23 11:08:28;;;;;;;60.80;29.07;;;7.90;99.90;;;;;;4959890;28;20481;-67
2023/02/23 11:10:59;;;;;;;63.67;29.73;;;7.90;99.90;;;;;;4950352;28;20896;-67
2023/02/23 11:13:28;;;;;;;61.97;28.33;;;8.00;99.90;;;;;;4947690;28;20480;-67
2023/02/23 11:16:02;;;;;;;64.30;29.27;;;8.00;99.90;;;;;;4949598;28;20489;-68
2023/02/23 11:18:32;;;;;;;56.30;27.40;;;8.00;99.90;;;;;;4968100;28;20680;-68
2023/02/23 11:21:00;;;;;;;55.27;26.80;;;8.00;99.90;;;;;;4953957;28;21083;-68
2023/02/23 11:23:31;;;;;;;57.30;27.73;;;8.10;99.90;;;;;;4963908;28;20508;-67
2023/02/23 11:26:02;;;;;;;57.57;27.50;;;8.10;99.90;;;;;;4947647;28;20988;-67
2023/02/23 11:28:33;;;;;;;56.13;26.73;;;8.10;99.90;;;;;;4955044;28;21023;-67
2023/02/23 11:31:03;;;;;;;52.20;25.83;;;8.10;99.90;;;;;;4961555;28;21019;-67
2023/02/23 11:33:36;;;;;;;50.03;25.67;;;8.20;99.90;;;;;;4988557;28;20465;-68
2023/02/23 11:36:17;;;;;;;51.00;27.40;;;8.30;99.90;;;;;;4987816;28;20493;-68
2023/02/23 11:38:46;;;;;;;47.60;25.87;;;8.20;99.90;;;;;;4955123;28;20473;-67
2023/02/23 11:41:23;;;;;;;52.33;26.13;;;8.30;99.90;;;;;;4966782;28;20952;-68
2023/02/23 11:43:56;;;;;;;52.47;25.30;;;8.30;99.90;;;;;;4961304;28;21024;-67
2023/02/23 11:46:26;;;;;;;49.60;24.80;;;8.30;99.90;;;;;;4961555;28;20481;-67
2023/02/23 11:48:59;;;;;;;53.17;27.87;;;8.30;99.90;;;;;;4955634;28;20465;-67
2023/02/23 11:51:30;;;;;;;56.23;27.47;;;8.40;99.90;;;;;;4988197;28;20481;-67
2023/02/23 11:53:59;;;;;;;53.07;26.77;;;8.50;99.90;;;;;;4974976;28;20573;-67
2023/02/23 11:56:28;;;;;;;50.43;26.40;;;8.50;99.90;;;;;;4952209;28;21265;-67
2023/02/23 11:59:00;;;;;;;50.97;26.03;;;8.50;99.90;;;;;;4959822;28;20484;-67
2023/02/23 12:01:40;;;;;;;49.43;27.07;;;8.60;99.90;;;;;;4962837;28;20484;-68
2023/02/23 12:04:22;;;;;;;53.63;26.30;;;8.60;99.90;;;;;;4947456;28;20497;-67
2023/02/23 12:06:52;;;;;;;50.23;24.73;;;8.70;99.90;;;;;;4952020;28;21512;-67
2023/02/23 12:09:24;;;;;;;46.43;24.67;;;8.70;99.90;;;;;;4948738;28;20493;-71
2023/02/23 12:11:58;;;;;;;47.80;26.43;;;8.70;99.90;;;;;;4949437;28;20499;-70
2023/02/23 12:14:33;;;;;;;45.97;23.70;;;8.60;99.90;;;;;;4981270;28;20472;-71
2023/02/23 12:17:08;;;;;;;50.43;24.53;;;8.60;99.90;;;;;;4961554;28;21305;-70
2023/02/23 12:19:45;;;;;;;49.70;25.27;;;8.60;99.90;;;;;;4953188;28;21558;-70
2023/02/23 12:22:16;;;;;;;49.53;24.00;;;8.60;99.90;;;;;;4949693;28;20465;-70
2023/02/23 12:24:50;;;;;;;50.00;23.47;;;8.60;99.90;;;;;;4955734;28;21691;-70
2023/02/23 12:27:23;;;;;;;50.10;23.40;;;8.60;99.90;;;;;;4955051;28;21030;-70
2023/02/23 12:30:06;;;;;;;52.43;24.87;;;8.50;99.90;;;;;;4950757;28;20493;-71
2023/02/23 12:32:45;;;;;;;47.17;23.90;;;8.50;99.90;;;;;;4970871;28;20884;-67
2023/02/23 12:35:20;;;;;;;43.30;23.40;;;8.60;99.90;;;;;;4961700;28;21006;-66
2023/02/23 12:37:52;;;;;;;51.23;26.47;;;8.60;99.90;;;;;;4951168;28;20858;-68
2023/02/23 12:40:26;;;;;;;48.20;24.10;;;8.60;99.90;;;;;;4950396;28;20503;-68
2023/02/23 12:43:01;;;;;;;45.43;24.03;;;8.50;99.90;;;;;;4973501;28;25718;-68
2023/02/23 12:45:38;;;;;;;53.53;25.13;;;8.50;99.90;;;;;;4977525;28;20496;-68
2023/02/23 12:48:18;;;;;;;47.50;24.10;;;8.40;99.90;;;;;;4947688;28;20504;-68
2023/02/23 12:50:51;;;;;;;46.67;24.37;;;8.40;99.90;;;;;;4946037;28;20503;-68
2023/02/23 12:53:25;;;;;;;41.90;22.60;;;8.50;99.90;;;;;;4982320;28;20832;-68
2023/02/23 12:56:13;;;;;;;39.70;21.67;;;8.50;99.90;;;;;;4980150;28;20497;-72
2023/02/23 12:58:50;;;;;;;52.70;22.57;;;8.50;99.90;;;;;;4948978;28;20468;-67
2023/02/23 13:01:23;;;;;;;42.20;22.57;;;8.50;99.90;;;;;;4981276;28;20535;-66
2023/02/23 13:04:24;;;;;;;47.40;24.40;;;8.60;99.90;;;;;;4977421;28;21021;-66
2023/02/23 13:06:59;;;;;;;45.90;23.03;;;8.60;99.90;;;;;;4932390;28;20480;-65
2023/02/23 13:09:43;;;;;;;46.00;23.87;;;8.50;99.90;;;;;;4960303;28;20539;-67
2023/02/23 13:12:24;;;;;;;47.07;24.30;;;8.50;99.90;;;;;;4958111;28;20476;-66
2023/02/23 13:14:59;;;;;;;47.63;23.20;;;8.50;99.90;;;;;;4953150;28;20622;-67
2023/02/23 13:17:37;;;;;;;46.37;23.47;;;8.50;99.90;;;;;;4950196;28;20500;-67
2023/02/23 13:20:14;;;;;;;45.27;22.53;;;8.50;99.90;;;;;;4956238;28;20492;-67
2023/02/23 13:22:49;;;;;;;44.13;22.20;;;8.50;99.90;;;;;;4954925;28;20476;-67
2023/02/23 13:25:35;;;;;;;45.37;22.10;;;8.60;99.90;;;;;;4965284;28;20493;-67
2023/02/23 13:28:06;;;;;;;38.20;20.23;;;8.60;99.90;;;;;;4952457;28;20497;-66
2023/02/23 13:30:34;;;;;;;39.50;21.17;;;8.60;99.90;;;;;;4961690;28;20489;-66
2023/02/23 13:33:11;;;;;;;42.37;21.83;;;8.60;99.90;;;;;;4954939;28;20615;-66
2023/02/23 13:35:41;;;;;;;40.73;21.63;;;8.60;99.90;;;;;;4952022;28;20762;-68
2023/02/23 13:38:18;;;;;;;39.27;20.77;;;8.60;99.90;;;;;;4978966;28;20491;-67
2023/02/23 13:40:53;;;;;;;38.70;19.80;;;8.50;99.90;;;;;;4945057;28;22301;-68
2023/02/23 13:43:27;;;;;;;34.50;19.80;;;8.60;99.90;;;;;;4967641;28;20488;-67
2023/02/23 13:46:14;;;;;;;39.33;20.33;;;8.60;99.90;;;;;;4952990;28;20542;-67
2023/02/23 13:48:54;;;;;;;38.07;19.27;;;8.60;99.90;;;;;;4952924;28;20575;-67
2023/02/23 13:51:34;;;;;;;36.67;20.07;;;8.60;99.90;;;;;;4958987;28;20500;-68
2023/02/23 13:54:21;;;;;;;38.10;20.70;;;8.60;99.90;;;;;;4956754;28;20484;-67
2023/02/23 13:56:54;;;;;;;38.70;19.90;;;8.60;99.90;;;;;;4946958;28;20489;-67
2023/02/23 13:59:27;;;;;;;34.73;19.40;;;8.60;99.90;;;;;;4955148;28;20588;-67
2023/02/23 14:01:55;;;;;;;39.60;19.23;;;8.60;99.90;;;;;;4957585;28;20559;-67
2023/02/23 14:04:27;;;;;;;36.87;18.47;;;8.60;99.90;;;;;;4956781;28;20486;-68
2023/02/23 14:07:00;;;;;;;33.93;17.67;;;8.60;99.90;;;;;;4979237;28;20493;-67
2023/02/23 14:09:32;;;;;;;38.30;19.13;;;8.60;99.90;;;;;;4956681;28;20496;-67
2023/02/23 14:12:15;;;;;;;32.13;17.40;;;8.70;99.90;;;;;;4946369;28;20469;-67
2023/02/23 14:14:45;;;;;;;32.40;18.27;;;8.70;99.90;;;;;;4959427;28;20536;-68
2023/02/23 14:17:56;;;;;;;35.97;17.40;;;8.70;99.90;;;;;;4946480;28;21465;-67
2023/02/23 14:20:42;;;;;;;29.20;15.03;;;8.70;99.90;;;;;;4954146;28;20493;-67